FIN2 KLAX-EFHK
Flight info
| Callsign | FIN2 |
|---|---|
| Flight time | N/A |
| Altitude | 38000 |
| Route | LADYJ4 CSTRO DCT CANDA/N0484F330 DCT KU69K/N0490F390 DCT KU84M DCT KU12O DCT AXILI DCT 55N105W 60N100W 65N090W 6830N08000W 71N070W/M085F410 DCT INGUM DCT 73N060W 74N040W 73N020W 70N000E/N0489F410 DCT GUBNO DCT NEBUR DCT UXADA Y349 AMROT Y362 LAKUT LAKUT7A |
| Aircraft | A359/H-SDE2E3GHIJ3J4J5LM1ORWXY/LB1D1 |
Departure
| Time | N/A |
|---|---|
| Airport | Los Angeles International Airport (KLAX) |
Arrival
| Time | 2026-04-26 06:10 |
|---|---|
| Airport | Helsinki Vantaa Airport (EFHK) |
| Time | Latitude | Longitude | Altitude | Speed | Heading |
|---|---|---|---|---|---|
| 2026-04-26 05:06 | 65.83362 | 13.30337 | 37990 ft | 535 kts | 116° |
| 2026-04-26 05:06 | 65.81562 | 13.38396 | 38065 ft | 537 kts | 116° |
| 2026-04-26 05:07 | 65.79784 | 13.46319 | 38436 ft | 535 kts | 116° |
| 2026-04-26 05:07 | 65.77421 | 13.56808 | 38964 ft | 530 kts | 116° |
| 2026-04-26 05:07 | 65.76232 | 13.62074 | 39137 ft | 530 kts | 116° |
| 2026-04-26 05:07 | 65.74455 | 13.69927 | 39400 ft | 530 kts | 116° |
| 2026-04-26 05:08 | 65.70853 | 13.85784 | 39425 ft | 539 kts | 116° |
| 2026-04-26 05:08 | 65.69053 | 13.93664 | 39630 ft | 538 kts | 116° |
| 2026-04-26 05:08 | 65.67219 | 14.01654 | 39881 ft | 536 kts | 117° |
| 2026-04-26 05:09 | 65.65425 | 14.09445 | 40148 ft | 534 kts | 117° |
| 2026-04-26 05:09 | 65.63596 | 14.17358 | 40357 ft | 533 kts | 117° |
| 2026-04-26 05:09 | 65.61790 | 14.25146 | 40579 ft | 532 kts | 117° |
| 2026-04-26 05:09 | 65.59985 | 14.32903 | 40769 ft | 532 kts | 117° |
| 2026-04-26 05:10 | 65.58155 | 14.40736 | 40938 ft | 531 kts | 117° |
| 2026-04-26 05:10 | 65.56217 | 14.48291 | 41017 ft | 534 kts | 125° |
| 2026-04-26 05:10 | 65.51058 | 14.61215 | 41005 ft | 536 kts | 136° |
| 2026-04-26 05:11 | 65.45481 | 14.73100 | 41003 ft | 537 kts | 138° |
| 2026-04-26 05:11 | 65.39795 | 14.84856 | 40996 ft | 537 kts | 138° |
| 2026-04-26 05:12 | 65.34160 | 14.96543 | 41006 ft | 537 kts | 138° |
| 2026-04-26 05:12 | 65.28525 | 15.08257 | 41004 ft | 537 kts | 138° |
| 2026-04-26 05:13 | 65.22898 | 15.19916 | 40994 ft | 535 kts | 138° |
| 2026-04-26 05:13 | 65.17280 | 15.31489 | 41001 ft | 534 kts | 138° |
| 2026-04-26 05:14 | 65.11662 | 15.42989 | 40987 ft | 533 kts | 138° |
| 2026-04-26 05:14 | 65.06050 | 15.54411 | 40989 ft | 532 kts | 138° |
| 2026-04-26 05:15 | 65.00448 | 15.65743 | 40980 ft | 532 kts | 138° |
| 2026-04-26 05:15 | 64.94822 | 15.77062 | 40979 ft | 532 kts | 138° |
| 2026-04-26 05:16 | 64.89182 | 15.88342 | 40975 ft | 532 kts | 139° |
| 2026-04-26 05:16 | 64.83515 | 15.99614 | 40980 ft | 532 kts | 139° |
| 2026-04-26 05:17 | 64.77848 | 16.10821 | 40980 ft | 532 kts | 139° |
| 2026-04-26 05:17 | 64.72176 | 16.21974 | 40961 ft | 532 kts | 139° |
| 2026-04-26 05:18 | 64.66528 | 16.33016 | 40946 ft | 533 kts | 139° |
| 2026-04-26 05:18 | 64.60820 | 16.44115 | 40915 ft | 533 kts | 139° |
| 2026-04-26 05:19 | 64.55121 | 16.55135 | 40895 ft | 534 kts | 139° |
| 2026-04-26 05:19 | 64.49395 | 16.66143 | 40894 ft | 534 kts | 139° |
| 2026-04-26 05:20 | 64.43693 | 16.77043 | 40903 ft | 534 kts | 139° |
| 2026-04-26 05:20 | 64.37962 | 16.87936 | 40970 ft | 534 kts | 139° |
| 2026-04-26 05:21 | 64.32231 | 16.98772 | 40983 ft | 534 kts | 140° |
| 2026-04-26 05:21 | 64.26474 | 17.09596 | 40958 ft | 536 kts | 140° |
| 2026-04-26 05:22 | 64.20648 | 17.20488 | 40965 ft | 537 kts | 140° |
| 2026-04-26 05:22 | 64.14856 | 17.31256 | 40954 ft | 537 kts | 140° |
| 2026-04-26 05:23 | 64.09049 | 17.41992 | 40955 ft | 537 kts | 140° |
| 2026-04-26 05:23 | 64.03234 | 17.52684 | 40971 ft | 537 kts | 140° |
| 2026-04-26 05:24 | 63.97428 | 17.63301 | 40949 ft | 534 kts | 140° |
| 2026-04-26 05:24 | 63.91635 | 17.73835 | 40950 ft | 532 kts | 140° |
| 2026-04-26 05:25 | 63.85851 | 17.84295 | 40936 ft | 533 kts | 140° |
| 2026-04-26 05:25 | 63.80067 | 17.94702 | 40943 ft | 534 kts | 140° |
| 2026-04-26 05:26 | 63.74239 | 18.05129 | 40932 ft | 534 kts | 140° |
| 2026-04-26 05:26 | 63.68413 | 18.15498 | 40939 ft | 534 kts | 141° |
| 2026-04-26 05:27 | 63.62579 | 18.25824 | 40923 ft | 534 kts | 141° |
| 2026-04-26 05:27 | 63.56765 | 18.36060 | 40922 ft | 534 kts | 141° |
| 2026-04-26 05:28 | 63.50910 | 18.46314 | 40916 ft | 534 kts | 141° |
| 2026-04-26 05:28 | 63.45061 | 18.56503 | 40916 ft | 534 kts | 141° |
| 2026-04-26 05:29 | 63.39199 | 18.66658 | 40905 ft | 534 kts | 141° |
| 2026-04-26 05:29 | 63.33336 | 18.76763 | 40886 ft | 532 kts | 141° |
| 2026-04-26 05:30 | 63.27484 | 18.86795 | 40901 ft | 532 kts | 141° |
| 2026-04-26 05:30 | 63.21603 | 18.96824 | 40908 ft | 532 kts | 141° |
| 2026-04-26 05:31 | 63.15743 | 19.06766 | 40906 ft | 532 kts | 141° |
| 2026-04-26 05:31 | 63.09859 | 19.16695 | 40896 ft | 532 kts | 142° |
| 2026-04-26 05:32 | 63.03980 | 19.26565 | 40889 ft | 531 kts | 142° |
| 2026-04-26 05:32 | 62.98101 | 19.36383 | 40897 ft | 531 kts | 142° |
| 2026-04-26 05:33 | 62.92213 | 19.46166 | 40893 ft | 531 kts | 142° |
| 2026-04-26 05:33 | 62.86309 | 19.55925 | 40888 ft | 531 kts | 142° |
| 2026-04-26 05:34 | 62.80425 | 19.65600 | 40890 ft | 532 kts | 142° |
| 2026-04-26 05:34 | 62.74509 | 19.75278 | 40884 ft | 531 kts | 142° |
| 2026-04-26 05:35 | 62.68607 | 19.84884 | 40883 ft | 531 kts | 142° |
| 2026-04-26 05:35 | 62.62685 | 19.94474 | 40855 ft | 531 kts | 142° |
| 2026-04-26 05:36 | 62.56752 | 20.04032 | 40871 ft | 532 kts | 142° |
| 2026-04-26 05:36 | 62.50783 | 20.13601 | 40862 ft | 532 kts | 142° |
| 2026-04-26 05:37 | 62.44827 | 20.23099 | 40876 ft | 532 kts | 142° |
| 2026-04-26 05:37 | 62.38900 | 20.32504 | 40854 ft | 531 kts | 143° |
| 2026-04-26 05:38 | 62.32957 | 20.41886 | 40854 ft | 531 kts | 143° |
| 2026-04-26 05:38 | 62.26988 | 20.51262 | 40845 ft | 531 kts | 143° |
| 2026-04-26 05:39 | 62.21038 | 20.60562 | 40845 ft | 531 kts | 143° |
| 2026-04-26 05:39 | 62.15076 | 20.69834 | 40853 ft | 531 kts | 143° |
| 2026-04-26 05:40 | 62.09065 | 20.79136 | 40834 ft | 530 kts | 143° |
| 2026-04-26 05:40 | 62.03106 | 20.88312 | 40843 ft | 530 kts | 143° |
| 2026-04-26 05:41 | 61.97124 | 20.97477 | 40827 ft | 530 kts | 143° |
| 2026-04-26 05:41 | 61.91158 | 21.06575 | 40826 ft | 530 kts | 143° |
| 2026-04-26 05:42 | 61.85145 | 21.15696 | 40820 ft | 530 kts | 143° |
| 2026-04-26 05:42 | 61.79140 | 21.24762 | 40821 ft | 530 kts | 143° |
| 2026-04-26 05:43 | 61.73178 | 21.33719 | 40810 ft | 531 kts | 143° |
| 2026-04-26 05:43 | 61.67133 | 21.42758 | 40811 ft | 531 kts | 143° |
| 2026-04-26 05:44 | 61.61110 | 21.51720 | 40816 ft | 532 kts | 143° |
| 2026-04-26 05:44 | 61.55067 | 21.60667 | 40802 ft | 532 kts | 143° |
| 2026-04-26 05:45 | 61.49015 | 21.69585 | 40803 ft | 530 kts | 144° |
| 2026-04-26 05:45 | 61.43003 | 21.78398 | 40393 ft | 524 kts | 144° |
| 2026-04-26 05:46 | 61.40007 | 21.82777 | 39583 ft | 528 kts | 144° |
| 2026-04-26 05:46 | 61.36988 | 21.87177 | 38749 ft | 534 kts | 144° |
| 2026-04-26 05:46 | 61.33915 | 21.91646 | 37768 ft | 539 kts | 144° |
| 2026-04-26 05:46 | 61.30833 | 21.96117 | 36786 ft | 543 kts | 144° |
| 2026-04-26 05:47 | 61.27748 | 22.00582 | 35847 ft | 547 kts | 144° |
| 2026-04-26 05:47 | 61.24627 | 22.05087 | 34984 ft | 549 kts | 143° |
| 2026-04-26 05:47 | 61.21494 | 22.09596 | 34187 ft | 550 kts | 143° |
| 2026-04-26 05:47 | 61.18350 | 22.14113 | 33327 ft | 550 kts | 143° |
| 2026-04-26 05:48 | 61.15177 | 22.18657 | 32357 ft | 550 kts | 143° |
| 2026-04-26 05:48 | 61.12051 | 22.23125 | 31369 ft | 551 kts | 143° |
| 2026-04-26 05:48 | 61.08894 | 22.27626 | 30371 ft | 552 kts | 143° |
| 2026-04-26 05:48 | 61.05712 | 22.32150 | 29626 ft | 547 kts | 143° |
| 2026-04-26 05:49 | 61.02594 | 22.36571 | 28881 ft | 540 kts | 143° |
| 2026-04-26 05:49 | 60.96485 | 22.45201 | 27575 ft | 526 kts | 143° |
| 2026-04-26 05:49 | 60.93504 | 22.49398 | 26909 ft | 519 kts | 143° |
| 2026-04-26 05:50 | 60.90544 | 22.53557 | 26271 ft | 513 kts | 143° |
| 2026-04-26 05:50 | 60.87632 | 22.57661 | 25706 ft | 505 kts | 143° |
| 2026-04-26 05:50 | 60.85028 | 22.62415 | 25233 ft | 491 kts | 129° |
| 2026-04-26 05:50 | 60.82934 | 22.67797 | 24677 ft | 482 kts | 124° |
| 2026-04-26 05:51 | 60.81003 | 22.73398 | 24061 ft | 476 kts | 121° |
| 2026-04-26 05:51 | 60.79209 | 22.78967 | 23447 ft | 470 kts | 120° |
| 2026-04-26 05:51 | 60.77482 | 22.84483 | 22748 ft | 464 kts | 120° |
| 2026-04-26 05:51 | 60.75742 | 22.90063 | 22109 ft | 456 kts | 120° |
| 2026-04-26 05:52 | 60.74064 | 22.95406 | 21490 ft | 448 kts | 121° |
| 2026-04-26 05:52 | 60.72388 | 23.00687 | 20877 ft | 441 kts | 121° |
| 2026-04-26 05:52 | 60.70710 | 23.05923 | 20261 ft | 434 kts | 121° |
| 2026-04-26 05:52 | 60.69072 | 23.11001 | 19662 ft | 428 kts | 121° |
| 2026-04-26 05:53 | 60.67424 | 23.16080 | 19040 ft | 423 kts | 121° |
| 2026-04-26 05:53 | 60.65819 | 23.21005 | 18429 ft | 418 kts | 121° |
| 2026-04-26 05:53 | 60.64225 | 23.25890 | 17780 ft | 413 kts | 121° |
| 2026-04-26 05:53 | 60.62623 | 23.30787 | 17113 ft | 407 kts | 122° |
| 2026-04-26 05:54 | 60.61066 | 23.35537 | 16523 ft | 401 kts | 121° |
| 2026-04-26 05:54 | 60.59525 | 23.40225 | 15913 ft | 396 kts | 121° |
| 2026-04-26 05:54 | 60.58011 | 23.44829 | 15333 ft | 391 kts | 121° |
| 2026-04-26 05:54 | 60.56519 | 23.49360 | 14722 ft | 386 kts | 121° |
| 2026-04-26 05:55 | 60.55040 | 23.53843 | 14148 ft | 382 kts | 121° |
| 2026-04-26 05:55 | 60.53551 | 23.58348 | 13552 ft | 378 kts | 121° |
| 2026-04-26 05:55 | 60.52113 | 23.62691 | 12919 ft | 374 kts | 120° |
| 2026-04-26 05:55 | 60.50661 | 23.67068 | 12348 ft | 369 kts | 120° |
| 2026-04-26 05:56 | 60.49243 | 23.71332 | 11760 ft | 365 kts | 120° |
| 2026-04-26 05:56 | 60.47821 | 23.75601 | 11229 ft | 359 kts | 120° |
| 2026-04-26 05:56 | 60.46450 | 23.79700 | 11026 ft | 344 kts | 120° |
| 2026-04-26 05:56 | 60.45155 | 23.83615 | 10921 ft | 328 kts | 117° |
| 2026-04-26 05:57 | 60.44242 | 23.87675 | 10787 ft | 303 kts | 98° |
| 2026-04-26 05:57 | 60.44038 | 23.91712 | 10661 ft | 279 kts | 81° |
| 2026-04-26 05:57 | 60.44202 | 23.95494 | 10542 ft | 264 kts | 76° |
| 2026-04-26 05:57 | 60.44427 | 23.99162 | 10423 ft | 258 kts | 75° |
| 2026-04-26 05:58 | 60.44650 | 24.02753 | 10237 ft | 259 kts | 75° |
| 2026-04-26 05:58 | 60.44711 | 24.06411 | 9930 ft | 262 kts | 83° |
| 2026-04-26 05:58 | 60.44630 | 24.10105 | 9656 ft | 262 kts | 84° |
| 2026-04-26 05:58 | 60.44523 | 24.13859 | 9423 ft | 276 kts | 84° |
| 2026-04-26 05:59 | 60.44410 | 24.17773 | 9273 ft | 279 kts | 85° |
| 2026-04-26 05:59 | 60.44288 | 24.21718 | 8770 ft | 279 kts | 85° |
| 2026-04-26 05:59 | 60.44170 | 24.25612 | 8328 ft | 278 kts | 84° |
| 2026-04-26 05:59 | 60.44050 | 24.29516 | 8031 ft | 276 kts | 84° |
| 2026-04-26 06:00 | 60.43932 | 24.33363 | 7703 ft | 273 kts | 84° |
| 2026-04-26 06:00 | 60.43815 | 24.37158 | 7390 ft | 272 kts | 84° |
| 2026-04-26 06:00 | 60.43698 | 24.41010 | 7050 ft | 270 kts | 83° |
| 2026-04-26 06:00 | 60.43582 | 24.44766 | 6721 ft | 269 kts | 83° |
| 2026-04-26 06:01 | 60.43319 | 24.48528 | 6405 ft | 278 kts | 96° |
| 2026-04-26 06:01 | 60.42378 | 24.52077 | 6053 ft | 297 kts | 123° |
| 2026-04-26 06:01 | 60.40848 | 24.54976 | 5703 ft | 302 kts | 133° |
| 2026-04-26 06:01 | 60.39224 | 24.57629 | 5418 ft | 301 kts | 135° |
| 2026-04-26 06:02 | 60.37600 | 24.60261 | 5169 ft | 300 kts | 134° |
| 2026-04-26 06:02 | 60.35988 | 24.62900 | 4967 ft | 298 kts | 134° |
| 2026-04-26 06:02 | 60.34281 | 24.65267 | 4669 ft | 304 kts | 151° |
| 2026-04-26 06:02 | 60.32248 | 24.65947 | 4522 ft | 295 kts | 187° |
| 2026-04-26 06:03 | 60.30404 | 24.64526 | 4407 ft | 271 kts | 224° |
| 2026-04-26 06:03 | 60.29138 | 24.61916 | 4218 ft | 258 kts | 239° |
| 2026-04-26 06:03 | 60.27903 | 24.59299 | 3936 ft | 266 kts | 223° |
| 2026-04-26 06:03 | 60.26139 | 24.57993 | 3641 ft | 275 kts | 184° |
| 2026-04-26 06:04 | 60.24328 | 24.58782 | 3370 ft | 263 kts | 144° |
| 2026-04-26 06:04 | 60.23040 | 24.61049 | 3286 ft | 239 kts | 122° |
| 2026-04-26 06:04 | 60.21981 | 24.63545 | 3200 ft | 223 kts | 115° |
| 2026-04-26 06:04 | 60.21576 | 24.66189 | 3070 ft | 183 kts | 74° |
| 2026-04-26 06:05 | 60.21829 | 24.68538 | 2985 ft | 168 kts | 55° |
| 2026-04-26 06:05 | 60.22315 | 24.70563 | 2911 ft | 150 kts | 45° |
| 2026-04-26 06:05 | 60.22941 | 24.72102 | 2713 ft | 139 kts | 35° |
| 2026-04-26 06:05 | 60.23579 | 24.73516 | 2502 ft | 136 kts | 36° |
| 2026-04-26 06:06 | 60.24221 | 24.74923 | 2300 ft | 137 kts | 35° |
| 2026-04-26 06:06 | 60.24842 | 24.76284 | 2101 ft | 128 kts | 35° |
| 2026-04-26 06:06 | 60.25435 | 24.77586 | 1924 ft | 125 kts | 36° |
| 2026-04-26 06:06 | 60.26015 | 24.78852 | 1762 ft | 120 kts | 34° |
| 2026-04-26 06:07 | 60.26578 | 24.80079 | 1570 ft | 119 kts | 35° |
| 2026-04-26 06:07 | 60.27138 | 24.81304 | 1408 ft | 119 kts | 35° |
| 2026-04-26 06:07 | 60.27708 | 24.82552 | 1231 ft | 121 kts | 36° |
| 2026-04-26 06:07 | 60.28281 | 24.83802 | 1053 ft | 122 kts | 37° |
| 2026-04-26 06:08 | 60.28861 | 24.85070 | 874 ft | 125 kts | 36° |
| 2026-04-26 06:08 | 60.29452 | 24.86366 | 691 ft | 126 kts | 36° |
| 2026-04-26 06:08 | 60.30043 | 24.87643 | 545 ft | 126 kts | 34° |
| 2026-04-26 06:08 | 60.30649 | 24.89002 | 377 ft | 130 kts | 38° |
| 2026-04-26 06:09 | 60.31258 | 24.90310 | 211 ft | 126 kts | 39° |
| 2026-04-26 06:09 | 60.31826 | 24.91552 | 156 ft | 108 kts | 45° |
| 2026-04-26 06:09 | 60.32265 | 24.92527 | 174 ft | 82 kts | 47° |
| 2026-04-26 06:09 | 60.32600 | 24.93260 | 196 ft | 61 kts | 47° |
| 2026-04-26 06:10 | 60.32833 | 24.93771 | 203 ft | 39 kts | 47° |
| 2026-04-26 06:10 | 60.32972 | 24.94076 | 205 ft | 24 kts | 47° |
| 2026-04-26 06:10 | 60.33043 | 24.94271 | 207 ft | 16 kts | 72° |
| 2026-04-26 06:10 | 60.33047 | 24.94518 | 192 ft | 19 kts | 92° |
| 2026-04-26 06:11 | 60.33002 | 24.94716 | 202 ft | 19 kts | 133° |
| 2026-04-26 06:11 | 60.32895 | 24.94895 | 181 ft | 21 kts | 150° |
| 2026-04-26 06:11 | 60.32753 | 24.95006 | 196 ft | 22 kts | 160° |
| 2026-04-26 06:11 | 60.32597 | 24.95106 | 203 ft | 23 kts | 162° |
| 2026-04-26 06:12 | 60.32452 | 24.95198 | 198 ft | 22 kts | 161° |
| 2026-04-26 06:12 | 60.32353 | 24.95274 | 183 ft | 24 kts | 154° |
| 2026-04-26 06:12 | 60.32213 | 24.95502 | 180 ft | 22 kts | 137° |
| 2026-04-26 06:12 | 60.32106 | 24.95699 | 179 ft | 20 kts | 137° |
| 2026-04-26 06:13 | 60.32013 | 24.95871 | 179 ft | 16 kts | 137° |
| 2026-04-26 06:13 | 60.31960 | 24.95970 | 177 ft | 16 kts | 137° |
| 2026-04-26 06:13 | 60.31871 | 24.96121 | 173 ft | 10 kts | 153° |
| 2026-04-26 06:13 | 60.31809 | 24.96074 | 173 ft | 11 kts | 223° |
| 2026-04-26 06:14 | 60.31769 | 24.95992 | 173 ft | 13 kts | 227° |
| 2026-04-26 06:14 | 60.31672 | 24.95778 | 173 ft | 17 kts | 227° |
| 2026-04-26 06:14 | 60.31616 | 24.95692 | 173 ft | 11 kts | 214° |
| 2026-04-26 06:14 | 60.31572 | 24.95629 | 173 ft | 5 kts | 191° |
| 2026-04-26 06:15 | 60.31540 | 24.95666 | 173 ft | 7 kts | 143° |
| 2026-04-26 06:15 | 60.31515 | 24.95708 | 173 ft | 2 kts | 139° |
| 2026-04-26 06:15 | 60.31515 | 24.95709 | 173 ft | 0 kts | 139° |